createdAt,value
2022-12-18T00:00:15.389Z,-2.22
2022-12-18T00:03:04.968Z,-2.22
2022-12-18T00:05:35.566Z,-2.09
2022-12-18T00:08:09.596Z,-2.19
2022-12-18T00:10:38.655Z,-2.35
2022-12-18T00:13:10.088Z,-2.32
2022-12-18T00:15:39.917Z,-2.45
2022-12-18T00:18:09.240Z,-2.43
2022-12-18T00:20:40.047Z,-2.42
2022-12-18T00:23:09.473Z,-2.49
2022-12-18T00:25:38.808Z,-2.53
2022-12-18T00:28:08.475Z,-2.61
2022-12-18T00:30:37.451Z,-2.56
2022-12-18T00:33:06.729Z,-2.61
2022-12-18T00:35:35.751Z,-2.60
2022-12-18T00:38:07.381Z,-2.71
2022-12-18T00:40:36.398Z,-2.77
2022-12-18T00:43:04.752Z,-2.82
2022-12-18T00:45:33.846Z,-2.87
2022-12-18T00:48:03.176Z,-2.94
2022-12-18T00:50:32.407Z,-2.98
2022-12-18T00:53:01.712Z,-3.00
2022-12-18T00:55:32.114Z,-2.81
2022-12-18T00:58:01.426Z,-2.99
2022-12-18T01:00:30.327Z,-3.09
2022-12-18T01:02:59.635Z,-3.05
2022-12-18T01:05:29.353Z,-3.16
2022-12-18T01:07:58.918Z,-3.04
2022-12-18T01:10:28.054Z,-3.15
2022-12-18T01:12:58.860Z,-3.24
2022-12-18T01:15:27.868Z,-3.26
2022-12-18T01:17:57.206Z,-3.23
2022-12-18T01:20:26.262Z,-3.31
2022-12-18T01:22:55.685Z,-3.30
2022-12-18T01:25:24.724Z,-3.32
2022-12-18T01:27:54.058Z,-3.33
2022-12-18T01:30:24.406Z,-3.29
2022-12-18T01:32:53.759Z,-3.28
2022-12-18T01:35:22.696Z,-3.25
2022-12-18T01:37:52.395Z,-3.20
2022-12-18T01:40:21.351Z,-3.19
2022-12-18T01:42:52.088Z,-3.20
2022-12-18T01:45:26.660Z,-3.18
2022-12-18T01:47:56.477Z,-3.09
2022-12-18T01:50:26.480Z,-3.11
2022-12-18T01:52:56.482Z,-3.09
2022-12-18T01:55:26.223Z,-3.06
2022-12-18T01:57:56.892Z,-3.03
2022-12-18T02:00:27.551Z,-3.00
2022-12-18T02:02:57.197Z,-2.98
2022-12-18T02:05:29.117Z,-2.81
2022-12-18T02:08:00.784Z,-2.80
2022-12-18T02:10:30.198Z,-2.54
2022-12-18T02:13:00.991Z,-2.77
2022-12-18T02:15:33.253Z,-2.76
2022-12-18T02:18:03.986Z,-2.76
2022-12-18T02:20:34.555Z,-2.65
2022-12-18T02:23:07.270Z,-2.66
2022-12-18T02:25:51.106Z,-2.66
2022-12-18T02:28:22.001Z,-2.64
2022-12-18T02:30:51.483Z,-2.58
2022-12-18T02:33:20.891Z,-2.59
2022-12-18T02:35:49.877Z,-2.41
2022-12-18T02:38:19.237Z,-2.49
2022-12-18T02:40:48.315Z,-2.42
2022-12-18T02:43:17.882Z,-2.42
2022-12-18T02:45:52.194Z,-2.41
2022-12-18T02:48:22.533Z,-2.31
2022-12-18T02:50:54.454Z,-2.19
2022-12-18T02:53:24.666Z,-2.11
2022-12-18T02:55:55.458Z,-2.16
2022-12-18T02:58:28.378Z,-2.22
2022-12-18T03:01:00.322Z,-2.17
2022-12-18T03:03:32.426Z,-2.17
2022-12-18T03:06:02.792Z,-2.11
2022-12-18T03:08:32.693Z,-2.13
2022-12-18T03:11:02.782Z,-2.08
2022-12-18T03:13:33.820Z,-2.05
2022-12-18T03:16:04.246Z,-2.02
2022-12-18T03:18:35.285Z,-2.01
2022-12-18T03:21:05.887Z,-1.97
2022-12-18T03:23:36.998Z,-1.98
2022-12-18T03:26:07.701Z,-2.04
2022-12-18T03:28:37.809Z,-1.95
2022-12-18T03:31:08.262Z,-1.94
2022-12-18T03:33:39.074Z,-1.89
2022-12-18T03:36:08.482Z,-1.92
2022-12-18T03:38:37.802Z,-1.81
2022-12-18T03:41:09.802Z,-1.85
2022-12-18T03:43:42.108Z,-1.78
2022-12-18T03:46:14.514Z,-1.79
2022-12-18T03:48:44.338Z,-1.79
2022-12-18T03:51:13.880Z,-1.63
2022-12-18T03:53:44.299Z,-1.71
2022-12-18T03:56:13.328Z,-1.75
2022-12-18T03:58:42.691Z,-1.69
2022-12-18T04:01:14.430Z,-1.77
2022-12-18T04:03:44.420Z,-1.71
2022-12-18T04:06:13.748Z,-1.67
2022-12-18T04:08:43.159Z,-1.77
2022-12-18T04:11:12.146Z,-1.71
2022-12-18T04:13:41.724Z,-1.67
2022-12-18T04:16:11.556Z,-1.67
2022-12-18T04:18:42.365Z,-1.69
2022-12-18T04:21:11.924Z,-1.67
2022-12-18T04:23:41.602Z,-1.66
2022-12-18T04:26:11.136Z,-1.66
2022-12-18T04:28:40.487Z,-1.70
2022-12-18T04:31:09.529Z,-1.66
2022-12-18T04:33:39.396Z,-1.70
2022-12-18T04:36:10.220Z,-1.71
2022-12-18T04:38:39.635Z,-1.72
2022-12-18T04:41:08.641Z,-1.58
2022-12-18T04:43:38.231Z,-1.76
2022-12-18T04:46:07.669Z,-1.73
2022-12-18T04:48:37.202Z,-1.67
2022-12-18T04:51:06.258Z,-1.66
2022-12-18T04:53:37.383Z,-1.70
2022-12-18T04:56:07.420Z,-1.72
2022-12-18T04:58:36.781Z,-1.75
2022-12-18T05:01:05.777Z,-1.73
2022-12-18T05:03:35.334Z,-1.71
2022-12-18T05:06:04.412Z,-1.68
2022-12-18T05:08:33.924Z,-1.69
2022-12-18T05:11:04.978Z,-1.75
2022-12-18T05:13:34.924Z,-1.75
2022-12-18T05:16:04.009Z,-1.74
2022-12-18T05:18:33.663Z,-1.77
2022-12-18T05:21:02.627Z,-1.64
2022-12-18T05:23:32.054Z,-1.76
2022-12-18T05:26:01.510Z,-1.80
2022-12-18T05:28:32.692Z,-1.78
2022-12-18T05:31:03.303Z,-1.76
2022-12-18T05:33:33.163Z,-1.78
2022-12-18T05:36:02.817Z,-1.79
2022-12-18T05:38:32.551Z,-1.83
2022-12-18T05:41:01.535Z,-1.78
2022-12-18T05:43:32.394Z,-1.65
2022-12-18T05:46:05.158Z,-1.77
2022-12-18T05:48:34.565Z,-1.78
2022-12-18T05:51:07.441Z,-1.87
2022-12-18T05:53:37.497Z,-1.81
2022-12-18T05:56:08.029Z,-1.84
2022-12-18T05:58:38.909Z,-1.80
2022-12-18T06:01:08.746Z,-1.90
2022-12-18T06:03:38.211Z,-1.77
2022-12-18T06:06:14.360Z,-1.84
2022-12-18T06:08:46.491Z,-1.81
2022-12-18T06:11:18.111Z,-1.77
2022-12-18T06:13:51.536Z,-1.76
2022-12-18T06:16:22.659Z,-1.86
2022-12-18T06:18:52.085Z,-1.88
2022-12-18T06:21:21.101Z,-1.90
2022-12-18T06:23:50.464Z,-1.92
2022-12-18T06:26:23.273Z,-1.88
2022-12-18T06:28:57.061Z,-1.88
2022-12-18T06:31:26.488Z,-1.91
2022-12-18T06:33:55.943Z,-1.96
2022-12-18T06:36:25.013Z,-1.93
2022-12-18T06:38:54.354Z,-1.97
2022-12-18T06:41:23.490Z,-1.99
2022-12-18T06:43:58.114Z,-1.93
2022-12-18T06:46:30.087Z,-1.94
2022-12-18T06:48:59.496Z,-1.99
2022-12-18T06:51:28.515Z,-2.04
2022-12-18T06:53:57.967Z,-2.07
2022-12-18T06:56:26.977Z,-2.03
2022-12-18T06:58:56.551Z,-2.09
2022-12-18T07:01:25.673Z,-2.02
2022-12-18T07:03:56.858Z,-2.05
2022-12-18T07:06:26.552Z,-2.09
2022-12-18T07:08:56.235Z,-2.02
2022-12-18T07:11:25.428Z,-2.09
2022-12-18T07:13:54.799Z,-2.07
2022-12-18T07:16:25.620Z,-2.16
2022-12-18T07:18:57.081Z,-2.11
2022-12-18T07:21:26.483Z,-2.08
2022-12-18T07:23:55.829Z,-2.15
2022-12-18T07:26:25.032Z,-2.13
2022-12-18T07:28:56.953Z,-2.14
2022-12-18T07:31:26.385Z,-2.13
2022-12-18T07:33:57.181Z,-2.16
2022-12-18T07:36:26.346Z,-2.12
2022-12-18T07:38:55.875Z,-2.14
2022-12-18T07:41:24.898Z,-2.17
2022-12-18T07:43:54.348Z,-2.19
2022-12-18T07:46:23.619Z,-2.21
2022-12-18T07:48:53.024Z,-2.21
2022-12-18T07:51:23.482Z,-2.17
2022-12-18T07:53:54.680Z,-2.11
2022-12-18T07:56:28.528Z,-2.05
2022-12-18T07:58:59.396Z,-2.07
2022-12-18T08:01:28.686Z,-2.07
2022-12-18T08:03:59.242Z,-2.01
2022-12-18T08:06:29.695Z,-1.92
2022-12-18T08:08:59.212Z,-1.93
2022-12-18T08:11:28.641Z,-1.91
2022-12-18T08:13:58.193Z,-1.91
2022-12-18T08:16:27.241Z,-1.87
2022-12-18T08:18:56.890Z,-1.95
2022-12-18T08:21:26.338Z,-1.88
2022-12-18T08:23:57.979Z,-1.79
2022-12-18T08:26:28.108Z,-1.59
2022-12-18T08:28:57.797Z,-1.71
2022-12-18T08:31:27.580Z,-1.42
2022-12-18T08:33:57.409Z,-1.43
2022-12-18T08:36:27.479Z,-1.51
2022-12-18T08:38:58.440Z,-1.58
2022-12-18T08:41:27.936Z,-1.29
2022-12-18T08:44:14.882Z,-1.29
2022-12-18T08:46:44.507Z,-1.20
2022-12-18T08:49:13.974Z,-1.28
2022-12-18T08:51:43.124Z,-1.10
2022-12-18T08:54:14.888Z,-1.30
2022-12-18T08:56:44.008Z,-1.28
2022-12-18T08:59:19.455Z,-0.91
2022-12-18T09:01:49.446Z,-0.52
2022-12-18T09:04:19.030Z,-0.52
2022-12-18T09:06:48.624Z,-0.60
2022-12-18T09:09:19.451Z,-0.49
2022-12-18T09:11:48.583Z,-0.48
2022-12-18T09:14:18.223Z,-0.41
2022-12-18T09:16:47.328Z,-0.42
2022-12-18T09:19:16.839Z,-0.73
2022-12-18T09:21:48.312Z,-0.81
2022-12-18T09:24:19.436Z,-0.65
2022-12-18T09:26:48.462Z,-0.89
2022-12-18T09:29:19.094Z,-0.79
2022-12-18T09:31:48.366Z,-0.71
2022-12-18T09:34:18.027Z,-0.24
2022-12-18T09:36:47.344Z,-0.07
2022-12-18T09:39:17.974Z,-0.06
2022-12-18T09:41:51.151Z,-0.09
2022-12-18T09:44:23.647Z,-0.34
2022-12-18T09:46:55.079Z,-0.43
2022-12-18T09:49:25.003Z,-0.36
2022-12-18T09:51:55.204Z,-0.32
2022-12-18T09:54:25.190Z,-0.18
2022-12-18T09:56:56.762Z,-0.14
2022-12-18T09:59:26.759Z,-0.26
2022-12-18T10:01:56.058Z,-0.30
2022-12-18T10:04:25.839Z,-0.41
2022-12-18T10:06:55.835Z,-0.13
2022-12-18T10:09:28.547Z,-0.11
2022-12-18T10:12:01.075Z,-0.35
2022-12-18T10:14:32.224Z,-0.33
2022-12-18T10:17:02.333Z,-0.23
2022-12-18T10:19:36.731Z,-0.33
2022-12-18T10:22:06.513Z,-0.34
2022-12-18T10:24:36.230Z,-0.29
2022-12-18T10:27:11.316Z,-0.29
2022-12-18T10:29:40.698Z,-0.19
2022-12-18T10:32:09.771Z,-0.22
2022-12-18T10:34:39.967Z,-0.17
2022-12-18T10:37:09.147Z,-0.13
2022-12-18T10:39:38.778Z,-0.12
2022-12-18T10:42:14.182Z,-0.13
2022-12-18T10:44:43.649Z,-0.13
2022-12-18T10:47:13.969Z,-0.17
2022-12-18T10:49:44.831Z,-0.23
2022-12-18T10:52:16.700Z,-0.13
2022-12-18T10:54:49.581Z,0.06
2022-12-18T10:57:30.641Z,-0.09
2022-12-18T11:00:00.790Z,-0.13
2022-12-18T11:02:30.997Z,-0.08
2022-12-18T11:05:00.691Z,0.14
2022-12-18T11:07:32.248Z,0.01
2022-12-18T11:10:02.507Z,0.11
2022-12-18T11:12:33.010Z,0.09
2022-12-18T11:15:02.415Z,0.26
2022-12-18T11:17:32.040Z,0.26
2022-12-18T11:20:01.708Z,0.36
2022-12-18T11:22:31.132Z,0.16
2022-12-18T11:27:52.184Z,0.12
2022-12-18T11:30:27.065Z,0.30
2022-12-18T11:32:57.053Z,0.30
2022-12-18T11:35:28.936Z,0.09
2022-12-18T11:37:59.818Z,0.11
2022-12-18T11:40:29.858Z,0.12
2022-12-18T11:43:02.058Z,0.13
2022-12-18T11:45:33.347Z,0.48
2022-12-18T11:48:04.266Z,0.33
2022-12-18T11:50:35.528Z,0.57
2022-12-18T11:53:06.402Z,0.59
2022-12-18T11:55:39.734Z,0.32
2022-12-18T11:58:12.334Z,0.18
2022-12-18T12:00:44.604Z,0.38
2022-12-18T12:03:21.904Z,0.34
2022-12-18T12:05:54.086Z,0.24
2022-12-18T12:08:27.961Z,0.23
2022-12-18T12:10:59.463Z,0.32
2022-12-18T12:13:33.422Z,0.24
2022-12-18T12:16:08.924Z,0.47
2022-12-18T12:18:40.536Z,0.47
2022-12-18T12:21:11.220Z,0.39
2022-12-18T12:23:42.630Z,0.41
2022-12-18T12:26:12.999Z,0.57
2022-12-18T12:28:49.831Z,0.46
2022-12-18T12:31:21.291Z,0.38
2022-12-18T12:33:51.924Z,0.57
2022-12-18T12:36:23.070Z,0.78
2022-12-18T12:38:53.569Z,0.97
2022-12-18T12:41:40.929Z,0.98
2022-12-18T12:44:11.806Z,1.03
2022-12-18T12:46:41.964Z,1.17
2022-12-18T12:49:12.183Z,1.04
2022-12-18T12:51:43.032Z,1.14
2022-12-18T12:54:14.228Z,1.13
2022-12-18T12:56:48.645Z,1.07
2022-12-18T12:59:21.335Z,1.14
2022-12-18T13:01:52.209Z,1.32
2022-12-18T13:04:23.556Z,1.32
2022-12-18T13:06:53.568Z,1.44
2022-12-18T13:09:22.954Z,1.37
2022-12-18T13:12:10.054Z,1.27
2022-12-18T13:14:41.187Z,1.56
2022-12-18T13:17:17.148Z,1.37
2022-12-18T13:19:46.346Z,1.38
2022-12-18T13:22:25.195Z,1.61
2022-12-18T13:24:54.188Z,1.41
2022-12-18T13:27:43.121Z,1.65
2022-12-18T13:30:26.933Z,1.80
2022-12-18T13:33:00.044Z,1.62
2022-12-18T13:35:42.052Z,1.54
2022-12-18T13:38:22.001Z,1.25
2022-12-18T13:40:59.764Z,1.25
2022-12-18T13:43:30.253Z,1.01
2022-12-18T13:46:03.435Z,0.92
2022-12-18T13:48:34.923Z,0.80
2022-12-18T13:51:04.893Z,0.92
2022-12-18T13:53:35.870Z,0.80
2022-12-18T13:56:05.173Z,0.95
2022-12-18T13:58:34.515Z,0.77
2022-12-18T14:01:05.776Z,0.61
2022-12-18T14:03:36.615Z,0.85
2022-12-18T14:06:06.036Z,0.76
2022-12-18T14:08:37.242Z,0.72
2022-12-18T14:11:07.910Z,0.68
2022-12-18T14:13:38.756Z,0.77
2022-12-18T14:16:09.111Z,0.81
2022-12-18T14:18:45.770Z,0.79
2022-12-18T14:21:22.634Z,0.79
2022-12-18T14:23:52.198Z,0.79
2022-12-18T14:26:26.549Z,0.77
2022-12-18T14:28:56.523Z,0.71
2022-12-18T14:31:26.367Z,0.73
2022-12-18T14:33:57.355Z,0.67
2022-12-18T14:36:27.225Z,0.58
2022-12-18T14:38:56.800Z,0.58
2022-12-18T14:41:25.960Z,0.58
2022-12-18T14:43:56.089Z,0.52
2022-12-18T14:46:29.710Z,0.47
2022-12-18T14:49:00.579Z,0.45
2022-12-18T14:51:30.006Z,0.45
2022-12-18T14:53:59.861Z,0.43
2022-12-18T14:56:29.647Z,0.35
2022-12-18T14:58:59.696Z,0.34
2022-12-18T15:01:29.815Z,0.31
2022-12-18T15:04:01.249Z,0.29
2022-12-18T15:06:31.536Z,0.25
2022-12-18T15:09:01.528Z,0.22
2022-12-18T15:11:31.953Z,0.19
2022-12-18T15:14:01.757Z,0.13
2022-12-18T15:16:30.993Z,0.09
2022-12-18T15:19:01.889Z,0.07
2022-12-18T15:21:32.770Z,0.02
2022-12-18T15:24:02.169Z,-0.01
2022-12-18T15:26:32.976Z,-0.05
2022-12-18T15:29:04.082Z,-0.10
2022-12-18T15:31:33.345Z,-0.14
2022-12-18T15:34:11.464Z,-0.18
2022-12-18T15:36:40.529Z,-0.22
2022-12-18T15:39:12.260Z,-0.25
2022-12-18T15:41:41.456Z,-0.29
2022-12-18T15:44:22.141Z,-0.37
2022-12-18T15:46:51.241Z,-0.39
2022-12-18T15:49:22.177Z,-0.45
2022-12-18T15:51:51.796Z,-0.45
2022-12-18T15:54:41.690Z,-0.49
2022-12-18T15:57:26.571Z,-0.53
2022-12-18T15:59:59.080Z,-0.57
2022-12-18T16:02:29.640Z,-0.62
2022-12-18T16:05:00.657Z,-0.70
2022-12-18T16:07:30.939Z,-0.77
2022-12-18T16:10:01.639Z,-0.92
2022-12-18T16:12:31.846Z,-0.94
2022-12-18T16:15:01.202Z,-1.00
2022-12-18T16:17:30.219Z,-1.24
2022-12-18T16:20:01.164Z,-1.25
2022-12-18T16:22:31.539Z,-1.41
2022-12-18T16:25:01.033Z,-1.48
2022-12-18T16:27:30.071Z,-1.59
2022-12-18T16:29:59.544Z,-1.77
2022-12-18T16:32:28.555Z,-1.81
2022-12-18T16:35:03.014Z,-1.88
2022-12-18T16:37:31.946Z,-2.01
2022-12-18T16:40:01.324Z,-2.06
2022-12-18T16:42:30.442Z,-2.33
2022-12-18T16:44:59.791Z,-2.34
2022-12-18T16:47:28.772Z,-2.44
2022-12-18T16:49:58.152Z,-2.48
2022-12-18T16:52:28.607Z,-2.60
2022-12-18T16:54:58.294Z,-2.68
2022-12-18T16:57:27.264Z,-2.63
2022-12-18T17:00:02.941Z,-2.80
2022-12-18T17:02:34.306Z,-2.76
2022-12-18T17:05:03.882Z,-2.81
2022-12-18T17:07:34.242Z,-2.68
2022-12-18T17:10:04.783Z,-2.92
2022-12-18T17:12:33.759Z,-2.88
2022-12-18T17:15:03.371Z,-2.78
2022-12-18T17:17:32.398Z,-2.75
2022-12-18T17:20:01.854Z,-2.78
2022-12-18T17:22:30.834Z,-2.92
2022-12-18T17:25:01.614Z,-2.83
2022-12-18T17:27:30.727Z,-2.80
2022-12-18T17:30:00.109Z,-2.88
2022-12-18T17:32:29.212Z,-2.90
2022-12-18T17:35:02.587Z,-2.89
2022-12-18T17:37:34.523Z,-3.05
2022-12-18T17:40:05.629Z,-3.18
2022-12-18T17:42:34.626Z,-3.22
2022-12-18T17:45:04.428Z,-3.34
2022-12-18T17:47:33.438Z,-3.37
2022-12-18T17:50:02.700Z,-3.43
2022-12-18T17:52:36.598Z,-3.71
2022-12-18T17:55:08.238Z,-3.46
2022-12-18T17:57:37.840Z,-3.54
2022-12-18T18:00:07.818Z,-3.62
2022-12-18T18:02:37.006Z,-3.53
2022-12-18T18:05:07.010Z,-3.52
2022-12-18T18:07:36.544Z,-3.71
2022-12-18T18:10:07.856Z,-3.87
2022-12-18T18:12:54.942Z,-3.75
2022-12-18T18:15:24.310Z,-3.74
2022-12-18T18:17:53.448Z,-3.92
2022-12-18T18:20:22.933Z,-3.92
2022-12-18T18:22:52.113Z,-3.95
2022-12-18T18:25:22.920Z,-4.03
2022-12-18T18:27:52.694Z,-4.17
2022-12-18T18:30:22.528Z,-4.08
2022-12-18T18:32:51.602Z,-4.13
2022-12-18T18:35:52.250Z,-4.14
2022-12-18T18:38:11.439Z,-4.21
2022-12-18T18:40:42.142Z,-4.14
2022-12-18T18:43:11.230Z,-4.12
2022-12-18T18:45:40.746Z,-4.19
2022-12-18T18:48:11.670Z,-4.23
2022-12-18T18:50:41.278Z,-4.21
2022-12-18T18:53:10.363Z,-4.28
2022-12-18T18:55:39.789Z,-4.32
2022-12-18T18:58:10.358Z,-4.52
2022-12-18T19:00:39.873Z,-4.65
2022-12-18T19:03:09.342Z,-4.56
2022-12-18T19:05:42.897Z,-4.59
2022-12-18T19:08:12.154Z,-4.52
2022-12-18T19:10:41.833Z,-4.66
2022-12-18T19:13:24.952Z,-4.83
2022-12-18T19:15:55.228Z,-4.82
2022-12-18T19:18:24.573Z,-5.06
2022-12-18T19:20:58.088Z,-4.99
2022-12-18T19:23:27.100Z,-4.72
2022-12-18T19:26:17.058Z,-4.90
2022-12-18T19:28:47.615Z,-4.92
2022-12-18T19:31:21.383Z,-4.93
2022-12-18T19:33:54.018Z,-5.00
2022-12-18T19:36:23.986Z,-4.80
2022-12-18T19:38:53.708Z,-4.85
2022-12-18T19:41:23.274Z,-4.85
2022-12-18T19:43:54.026Z,-4.80
2022-12-18T19:46:23.964Z,-4.76
2022-12-18T19:48:53.813Z,-4.85
2022-12-18T19:51:24.990Z,-4.81
2022-12-18T19:53:58.448Z,-4.86
2022-12-18T19:56:29.399Z,-4.79
2022-12-18T19:59:00.093Z,-4.92
2022-12-18T20:01:29.958Z,-4.78
2022-12-18T20:03:59.802Z,-4.74
2022-12-18T20:06:31.363Z,-4.78
2022-12-18T20:09:01.467Z,-4.87
2022-12-18T20:11:31.536Z,-4.97
2022-12-18T20:14:02.312Z,-5.09
2022-12-18T20:16:31.908Z,-4.85
2022-12-18T20:19:01.865Z,-4.89
2022-12-18T20:21:31.669Z,-4.83
2022-12-18T20:24:02.281Z,-4.89
2022-12-18T20:26:31.784Z,-4.95
2022-12-18T20:29:02.317Z,-4.96
2022-12-18T20:31:32.096Z,-4.89
2022-12-18T20:34:02.578Z,-4.91
2022-12-18T20:36:34.305Z,-4.91
2022-12-18T20:39:05.311Z,-4.88
2022-12-18T20:41:38.529Z,-4.96
2022-12-18T20:44:22.582Z,-5.06
2022-12-18T20:46:55.631Z,-4.94
2022-12-18T20:49:25.254Z,-5.15
2022-12-18T20:51:57.439Z,-5.02
2022-12-18T20:54:27.042Z,-5.00
2022-12-18T20:56:57.030Z,-4.94
2022-12-18T20:59:27.650Z,-4.90
2022-12-18T21:01:57.264Z,-4.93
2022-12-18T21:04:26.777Z,-4.99
2022-12-18T21:07:02.330Z,-5.03
2022-12-18T21:09:37.471Z,-4.92
2022-12-18T21:12:27.396Z,-4.91
2022-12-18T21:14:59.721Z,-4.90
2022-12-18T21:17:29.248Z,-4.88
2022-12-18T21:19:59.841Z,-4.97
2022-12-18T21:22:29.561Z,-4.89
2022-12-18T21:24:58.618Z,-4.96
2022-12-18T21:27:27.924Z,-5.04
2022-12-18T21:29:58.388Z,-5.06
2022-12-18T21:32:29.842Z,-5.06
2022-12-18T21:35:02.568Z,-4.86
2022-12-18T21:37:31.888Z,-4.77
2022-12-18T21:40:00.920Z,-4.73
2022-12-18T21:42:47.746Z,-4.71
2022-12-18T21:45:18.387Z,-4.67
2022-12-18T21:47:47.802Z,-4.62
2022-12-18T21:50:16.982Z,-4.61
2022-12-18T21:52:46.491Z,-4.58
2022-12-18T21:55:15.599Z,-4.55
2022-12-18T21:57:44.936Z,-4.54
2022-12-18T22:00:19.024Z,-4.51
2022-12-18T22:03:17.743Z,-4.44
2022-12-18T22:05:40.702Z,-4.43
2022-12-18T22:08:10.474Z,-4.41
2022-12-18T22:10:39.673Z,-4.40
2022-12-18T22:13:09.369Z,-4.40
2022-12-18T22:15:38.437Z,-4.38
2022-12-18T22:18:09.796Z,-4.38
2022-12-18T22:20:38.827Z,-4.35
2022-12-18T22:23:09.217Z,-4.39
2022-12-18T22:25:39.673Z,-4.34
2022-12-18T22:28:26.961Z,-4.30
2022-12-18T22:30:59.231Z,-4.36
2022-12-18T22:33:30.627Z,-4.30
2022-12-18T22:36:00.427Z,-4.28
2022-12-18T22:38:29.833Z,-4.26
2022-12-18T22:40:58.815Z,-4.22
2022-12-18T22:43:28.565Z,-4.20
2022-12-18T22:45:57.697Z,-4.19
2022-12-18T22:48:27.051Z,-4.18
2022-12-18T22:51:30.281Z,-4.15
2022-12-18T22:54:01.110Z,-4.13
2022-12-18T22:56:31.786Z,-4.11
2022-12-18T22:59:01.170Z,-4.09
2022-12-18T23:01:30.970Z,-4.07
2022-12-18T23:04:00.713Z,-4.05
2022-12-18T23:06:29.686Z,-4.00
2022-12-18T23:08:59.177Z,-4.00
2022-12-18T23:11:29.674Z,-4.00
2022-12-18T23:13:58.936Z,-3.97
2022-12-18T23:16:27.962Z,-3.99
2022-12-18T23:18:57.543Z,-3.94
2022-12-18T23:21:26.575Z,-3.89
2022-12-18T23:23:57.193Z,-3.89
2022-12-18T23:26:26.476Z,-4.07
2022-12-18T23:28:57.611Z,-3.95
2022-12-18T23:31:27.318Z,-3.89
2022-12-18T23:33:57.402Z,-3.85
2022-12-18T23:36:26.460Z,-3.83
2022-12-18T23:38:56.379Z,-3.80
2022-12-18T23:41:26.153Z,-3.81
2022-12-18T23:43:55.541Z,-3.78
2022-12-18T23:46:26.422Z,-3.76
2022-12-18T23:48:55.820Z,-3.76
2022-12-18T23:51:25.813Z,-3.77
2022-12-18T23:53:55.419Z,-3.75
2022-12-18T23:56:24.533Z,-3.78
2022-12-18T23:58:54.000Z,-3.74
